BBJ weather

Bitburg Airport
Bitburg, Rhineland-Palatinate, Germany

Public forecast

Using degrees Celsius for public forecast. Weather courtesy of forecast.io.

Closest aviation weather report (METAR) to Bitburg Airport

Closest report is Spangdahlem Air Base, 5.2 nm (9.6 km) ENE. Retrieved 2020/08/06 00:56 UTC (35 minutes ago):

ETAD 060056Z AUTO 00000KT 9999 CLR 17/07 A3010 RMK AO2 SLP170 T01730068

Closest aviation forecast (TAF) to Bitburg Airport

Closest forecast is Spangdahlem Air Base, 5.2 nm (9.6 km) ENE. Retrieved 2020/08/05 20:07 UTC (5 hours ago):

TAF ETAD 052000Z 0520/0702 VRB04KT 9999 SKC QNH3006INS BECMG 0605/0606 18006KT 9999 FEW120 QNH3012INS BECMG 0617/0618 VRB04KT 9999 SKC QNH3014INS TX30/0614Z TN10/0603Z LAST NO AMDS AFT 0520 NEXT 0604